sensor_id;sensor_type;location;lat;lon;timestamp;P1;durP1;ratioP1;P2;durP2;ratioP2
69246;SDS011;56358;56.328;43.992;2023-12-28T00:01:00;10.02;;;4.75;;
69246;SDS011;56358;56.328;43.992;2023-12-28T00:03:01;12.70;;;5.25;;
69246;SDS011;56358;56.328;43.992;2023-12-28T00:05:01;10.38;;;4.57;;
69246;SDS011;56358;56.328;43.992;2023-12-28T00:07:04;11.52;;;4.22;;
69246;SDS011;56358;56.328;43.992;2023-12-28T00:09:05;14.50;;;4.55;;
69246;SDS011;56358;56.328;43.992;2023-12-28T00:11:06;9.30;;;4.38;;
69246;SDS011;56358;56.328;43.992;2023-12-28T00:13:07;9.88;;;3.75;;
69246;SDS011;56358;56.328;43.992;2023-12-28T00:15:08;11.77;;;4.57;;
69246;SDS011;56358;56.328;43.992;2023-12-28T00:17:09;9.15;;;4.38;;
69246;SDS011;56358;56.328;43.992;2023-12-28T00:19:09;9.90;;;3.78;;
69246;SDS011;56358;56.328;43.992;2023-12-28T00:21:10;8.45;;;3.72;;
69246;SDS011;56358;56.328;43.992;2023-12-28T00:23:11;10.13;;;4.32;;
69246;SDS011;56358;56.328;43.992;2023-12-28T00:25:11;8.90;;;3.83;;
69246;SDS011;56358;56.328;43.992;2023-12-28T00:27:12;12.55;;;4.32;;
69246;SDS011;56358;56.328;43.992;2023-12-28T00:29:13;10.80;;;4.07;;
69246;SDS011;56358;56.328;43.992;2023-12-28T00:31:13;11.63;;;4.57;;
69246;SDS011;56358;56.328;43.992;2023-12-28T00:33:14;9.95;;;4.72;;
69246;SDS011;56358;56.328;43.992;2023-12-28T00:35:15;11.07;;;4.90;;
69246;SDS011;56358;56.328;43.992;2023-12-28T00:37:16;9.40;;;4.10;;
69246;SDS011;56358;56.328;43.992;2023-12-28T00:39:16;7.55;;;3.38;;
69246;SDS011;56358;56.328;43.992;2023-12-28T00:41:17;9.75;;;4.95;;
69246;SDS011;56358;56.328;43.992;2023-12-28T00:43:18;10.73;;;4.50;;
69246;SDS011;56358;56.328;43.992;2023-12-28T00:45:18;7.13;;;3.28;;
69246;SDS011;56358;56.328;43.992;2023-12-28T00:47:19;12.18;;;4.55;;
69246;SDS011;56358;56.328;43.992;2023-12-28T00:49:20;7.45;;;4.00;;
69246;SDS011;56358;56.328;43.992;2023-12-28T00:51:21;9.75;;;4.28;;
69246;SDS011;56358;56.328;43.992;2023-12-28T00:53:21;9.75;;;3.92;;
69246;SDS011;56358;56.328;43.992;2023-12-28T00:55:22;10.18;;;3.90;;
69246;SDS011;56358;56.328;43.992;2023-12-28T00:57:23;9.23;;;4.10;;
69246;SDS011;56358;56.328;43.992;2023-12-28T00:59:23;9.45;;;4.35;;
69246;SDS011;56358;56.328;43.992;2023-12-28T01:01:24;9.55;;;4.15;;
69246;SDS011;56358;56.328;43.992;2023-12-28T01:03:25;8.35;;;3.50;;
69246;SDS011;56358;56.328;43.992;2023-12-28T01:05:26;7.68;;;3.88;;
69246;SDS011;56358;56.328;43.992;2023-12-28T01:07:28;8.63;;;4.65;;
69246;SDS011;56358;56.328;43.992;2023-12-28T01:09:29;8.48;;;3.80;;
69246;SDS011;56358;56.328;43.992;2023-12-28T01:11:30;9.48;;;4.07;;
69246;SDS011;56358;56.328;43.992;2023-12-28T01:13:31;10.45;;;4.05;;
69246;SDS011;56358;56.328;43.992;2023-12-28T01:15:32;9.55;;;4.00;;
69246;SDS011;56358;56.328;43.992;2023-12-28T01:17:32;12.18;;;4.25;;
69246;SDS011;56358;56.328;43.992;2023-12-28T01:19:33;7.95;;;4.13;;
69246;SDS011;56358;56.328;43.992;2023-12-28T01:21:34;9.38;;;3.83;;
69246;SDS011;56358;56.328;43.992;2023-12-28T01:23:35;8.20;;;3.28;;
69246;SDS011;56358;56.328;43.992;2023-12-28T01:25:35;11.07;;;4.15;;
69246;SDS011;56358;56.328;43.992;2023-12-28T01:27:36;8.60;;;4.03;;
69246;SDS011;56358;56.328;43.992;2023-12-28T01:29:37;9.82;;;4.55;;
69246;SDS011;56358;56.328;43.992;2023-12-28T01:31:37;9.35;;;4.65;;
69246;SDS011;56358;56.328;43.992;2023-12-28T01:33:39;11.73;;;4.38;;
69246;SDS011;56358;56.328;43.992;2023-12-28T01:35:40;16.67;;;5.18;;
69246;SDS011;56358;56.328;43.992;2023-12-28T01:37:41;10.95;;;4.25;;
69246;SDS011;56358;56.328;43.992;2023-12-28T01:39:42;10.85;;;4.13;;
69246;SDS011;56358;56.328;43.992;2023-12-28T01:41:43;12.82;;;4.35;;
69246;SDS011;56358;56.328;43.992;2023-12-28T01:43:46;10.55;;;4.65;;
69246;SDS011;56358;56.328;43.992;2023-12-28T01:45:46;9.00;;;4.43;;
69246;SDS011;56358;56.328;43.992;2023-12-28T01:47:47;12.43;;;4.90;;
69246;SDS011;56358;56.328;43.992;2023-12-28T01:49:49;8.10;;;4.13;;
69246;SDS011;56358;56.328;43.992;2023-12-28T01:51:50;9.85;;;4.43;;
69246;SDS011;56358;56.328;43.992;2023-12-28T01:53:51;11.45;;;4.85;;
69246;SDS011;56358;56.328;43.992;2023-12-28T01:55:53;9.70;;;3.92;;
69246;SDS011;56358;56.328;43.992;2023-12-28T01:57:54;9.73;;;4.68;;
69246;SDS011;56358;56.328;43.992;2023-12-28T01:59:55;12.38;;;4.53;;
69246;SDS011;56358;56.328;43.992;2023-12-28T02:02:04;13.10;;;4.35;;
69246;SDS011;56358;56.328;43.992;2023-12-28T02:04:05;11.98;;;4.45;;
69246;SDS011;56358;56.328;43.992;2023-12-28T02:06:06;9.63;;;4.43;;
69246;SDS011;56358;56.328;43.992;2023-12-28T02:08:07;7.05;;;3.97;;
69246;SDS011;56358;56.328;43.992;2023-12-28T02:10:08;12.80;;;4.35;;
69246;SDS011;56358;56.328;43.992;2023-12-28T02:12:09;9.55;;;3.42;;
69246;SDS011;56358;56.328;43.992;2023-12-28T02:14:10;14.05;;;5.38;;
69246;SDS011;56358;56.328;43.992;2023-12-28T02:16:21;11.57;;;4.75;;
69246;SDS011;56358;56.328;43.992;2023-12-28T02:18:35;14.35;;;5.50;;
69246;SDS011;56358;56.328;43.992;2023-12-28T02:20:40;16.17;;;5.43;;
69246;SDS011;56358;56.328;43.992;2023-12-28T02:22:42;9.85;;;4.38;;
69246;SDS011;56358;56.328;43.992;2023-12-28T02:27:12;13.57;;;4.93;;
69246;SDS011;56358;56.328;43.992;2023-12-28T02:29:12;15.07;;;4.88;;
69246;SDS011;56358;56.328;43.992;2023-12-28T02:31:26;12.82;;;5.35;;
69246;SDS011;56358;56.328;43.992;2023-12-28T02:33:41;6.93;;;3.25;;
69246;SDS011;56358;56.328;43.992;2023-12-28T02:35:51;9.80;;;3.85;;
69246;SDS011;56358;56.328;43.992;2023-12-28T02:37:56;13.50;;;5.35;;
69246;SDS011;56358;56.328;43.992;2023-12-28T02:40:02;9.88;;;4.85;;
69246;SDS011;56358;56.328;43.992;2023-12-28T02:42:04;15.32;;;4.97;;
69246;SDS011;56358;56.328;43.992;2023-12-28T02:44:05;9.93;;;4.95;;
69246;SDS011;56358;56.328;43.992;2023-12-28T02:46:06;12.15;;;5.72;;
69246;SDS011;56358;56.328;43.992;2023-12-28T02:48:06;14.65;;;5.00;;
69246;SDS011;56358;56.328;43.992;2023-12-28T02:50:07;12.30;;;4.30;;
69246;SDS011;56358;56.328;43.992;2023-12-28T02:52:08;15.52;;;5.10;;
69246;SDS011;56358;56.328;43.992;2023-12-28T02:54:09;13.70;;;4.55;;
69246;SDS011;56358;56.328;43.992;2023-12-28T02:56:09;15.18;;;5.68;;
69246;SDS011;56358;56.328;43.992;2023-12-28T02:58:10;14.77;;;5.30;;
69246;SDS011;56358;56.328;43.992;2023-12-28T03:00:11;16.80;;;5.82;;
69246;SDS011;56358;56.328;43.992;2023-12-28T03:02:12;13.93;;;4.95;;
69246;SDS011;56358;56.328;43.992;2023-12-28T03:04:13;14.10;;;5.40;;
69246;SDS011;56358;56.328;43.992;2023-12-28T03:06:14;19.05;;;6.22;;
69246;SDS011;56358;56.328;43.992;2023-12-28T03:08:14;12.40;;;5.35;;
69246;SDS011;56358;56.328;43.992;2023-12-28T03:10:15;14.00;;;5.32;;
69246;SDS011;56358;56.328;43.992;2023-12-28T03:12:16;13.77;;;5.00;;
69246;SDS011;56358;56.328;43.992;2023-12-28T03:14:17;11.88;;;5.03;;
69246;SDS011;56358;56.328;43.992;2023-12-28T03:16:18;14.43;;;5.47;;
69246;SDS011;56358;56.328;43.992;2023-12-28T03:18:19;15.25;;;5.88;;
69246;SDS011;56358;56.328;43.992;2023-12-28T03:20:20;13.02;;;4.90;;
69246;SDS011;56358;56.328;43.992;2023-12-28T03:22:20;7.70;;;3.10;;
69246;SDS011;56358;56.328;43.992;2023-12-28T03:24:21;11.20;;;3.78;;
69246;SDS011;56358;56.328;43.992;2023-12-28T03:26:22;19.92;;;5.43;;
69246;SDS011;56358;56.328;43.992;2023-12-28T03:28:22;15.30;;;4.50;;
69246;SDS011;56358;56.328;43.992;2023-12-28T03:30:23;11.07;;;4.70;;
69246;SDS011;56358;56.328;43.992;2023-12-28T03:32:24;11.75;;;4.90;;
69246;SDS011;56358;56.328;43.992;2023-12-28T03:34:25;18.48;;;5.55;;
69246;SDS011;56358;56.328;43.992;2023-12-28T03:36:30;13.38;;;5.00;;
69246;SDS011;56358;56.328;43.992;2023-12-28T03:38:30;11.15;;;5.20;;
69246;SDS011;56358;56.328;43.992;2023-12-28T03:40:31;12.77;;;4.75;;
69246;SDS011;56358;56.328;43.992;2023-12-28T03:42:32;9.25;;;4.13;;
69246;SDS011;56358;56.328;43.992;2023-12-28T03:44:32;14.02;;;4.97;;
69246;SDS011;56358;56.328;43.992;2023-12-28T03:46:33;13.38;;;5.50;;
69246;SDS011;56358;56.328;43.992;2023-12-28T03:48:35;14.95;;;4.72;;
69246;SDS011;56358;56.328;43.992;2023-12-28T03:50:36;16.23;;;5.35;;
69246;SDS011;56358;56.328;43.992;2023-12-28T03:52:37;11.02;;;4.95;;
69246;SDS011;56358;56.328;43.992;2023-12-28T03:54:39;11.13;;;4.75;;
69246;SDS011;56358;56.328;43.992;2023-12-28T03:56:40;11.00;;;5.15;;
69246;SDS011;56358;56.328;43.992;2023-12-28T03:58:41;13.13;;;5.15;;
69246;SDS011;56358;56.328;43.992;2023-12-28T04:00:41;11.27;;;4.45;;
69246;SDS011;56358;56.328;43.992;2023-12-28T04:02:42;13.35;;;5.05;;
69246;SDS011;56358;56.328;43.992;2023-12-28T04:04:43;9.73;;;3.92;;
69246;SDS011;56358;56.328;43.992;2023-12-28T04:06:43;12.80;;;5.25;;
69246;SDS011;56358;56.328;43.992;2023-12-28T04:08:44;15.80;;;4.60;;
69246;SDS011;56358;56.328;43.992;2023-12-28T04:10:45;14.57;;;5.20;;
69246;SDS011;56358;56.328;43.992;2023-12-28T04:12:46;14.32;;;4.80;;
69246;SDS011;56358;56.328;43.992;2023-12-28T04:14:46;13.40;;;4.20;;
69246;SDS011;56358;56.328;43.992;2023-12-28T04:16:47;13.35;;;4.03;;
69246;SDS011;56358;56.328;43.992;2023-12-28T04:18:48;13.45;;;4.90;;
69246;SDS011;56358;56.328;43.992;2023-12-28T04:20:49;10.63;;;4.65;;
69246;SDS011;56358;56.328;43.992;2023-12-28T04:22:49;10.38;;;4.35;;
69246;SDS011;56358;56.328;43.992;2023-12-28T04:24:50;19.55;;;4.82;;
69246;SDS011;56358;56.328;43.992;2023-12-28T04:26:51;9.27;;;3.60;;
69246;SDS011;56358;56.328;43.992;2023-12-28T04:28:51;12.18;;;4.88;;
69246;SDS011;56358;56.328;43.992;2023-12-28T04:30:52;12.60;;;4.18;;
69246;SDS011;56358;56.328;43.992;2023-12-28T04:32:53;16.23;;;5.07;;
69246;SDS011;56358;56.328;43.992;2023-12-28T04:34:54;14.40;;;5.25;;
69246;SDS011;56358;56.328;43.992;2023-12-28T04:36:54;12.60;;;5.15;;
69246;SDS011;56358;56.328;43.992;2023-12-28T04:38:55;12.20;;;4.15;;
69246;SDS011;56358;56.328;43.992;2023-12-28T04:40:56;9.80;;;4.05;;
69246;SDS011;56358;56.328;43.992;2023-12-28T04:42:56;12.63;;;5.28;;
69246;SDS011;56358;56.328;43.992;2023-12-28T04:44:57;11.45;;;4.32;;
69246;SDS011;56358;56.328;43.992;2023-12-28T04:46:58;11.85;;;5.20;;
69246;SDS011;56358;56.328;43.992;2023-12-28T04:48:59;10.65;;;4.85;;
69246;SDS011;56358;56.328;43.992;2023-12-28T04:51:02;12.13;;;3.65;;
69246;SDS011;56358;56.328;43.992;2023-12-28T04:53:03;14.07;;;5.03;;
69246;SDS011;56358;56.328;43.992;2023-12-28T04:55:04;9.73;;;4.30;;
69246;SDS011;56358;56.328;43.992;2023-12-28T04:57:05;15.68;;;5.30;;
69246;SDS011;56358;56.328;43.992;2023-12-28T04:59:08;13.13;;;4.68;;
69246;SDS011;56358;56.328;43.992;2023-12-28T05:01:09;16.40;;;5.80;;
69246;SDS011;56358;56.328;43.992;2023-12-28T05:03:10;13.25;;;4.50;;
69246;SDS011;56358;56.328;43.992;2023-12-28T05:05:11;10.55;;;4.25;;
69246;SDS011;56358;56.328;43.992;2023-12-28T05:07:12;15.77;;;4.95;;
69246;SDS011;56358;56.328;43.992;2023-12-28T05:09:13;6.63;;;3.55;;
69246;SDS011;56358;56.328;43.992;2023-12-28T05:11:14;13.75;;;5.70;;
69246;SDS011;56358;56.328;43.992;2023-12-28T05:13:15;12.57;;;5.72;;
69246;SDS011;56358;56.328;43.992;2023-12-28T05:15:16;12.93;;;4.65;;
69246;SDS011;56358;56.328;43.992;2023-12-28T05:17:18;15.10;;;4.57;;
69246;SDS011;56358;56.328;43.992;2023-12-28T05:19:19;10.27;;;4.15;;
69246;SDS011;56358;56.328;43.992;2023-12-28T05:21:19;10.63;;;4.53;;
69246;SDS011;56358;56.328;43.992;2023-12-28T05:23:21;11.18;;;3.35;;
69246;SDS011;56358;56.328;43.992;2023-12-28T05:25:22;10.43;;;4.22;;
69246;SDS011;56358;56.328;43.992;2023-12-28T05:27:22;11.82;;;4.43;;
69246;SDS011;56358;56.328;43.992;2023-12-28T05:29:23;8.52;;;3.92;;
69246;SDS011;56358;56.328;43.992;2023-12-28T05:31:24;9.77;;;3.72;;
69246;SDS011;56358;56.328;43.992;2023-12-28T05:33:25;8.27;;;4.07;;
69246;SDS011;56358;56.328;43.992;2023-12-28T05:35:26;11.70;;;4.07;;
69246;SDS011;56358;56.328;43.992;2023-12-28T05:37:26;12.50;;;4.15;;
69246;SDS011;56358;56.328;43.992;2023-12-28T05:39:27;15.23;;;4.25;;
69246;SDS011;56358;56.328;43.992;2023-12-28T05:41:28;12.32;;;4.30;;
69246;SDS011;56358;56.328;43.992;2023-12-28T05:43:28;11.98;;;3.97;;
69246;SDS011;56358;56.328;43.992;2023-12-28T05:45:29;14.93;;;4.57;;
69246;SDS011;56358;56.328;43.992;2023-12-28T05:47:30;11.13;;;4.90;;
69246;SDS011;56358;56.328;43.992;2023-12-28T05:49:31;11.75;;;3.67;;
69246;SDS011;56358;56.328;43.992;2023-12-28T05:51:37;13.55;;;4.57;;
69246;SDS011;56358;56.328;43.992;2023-12-28T05:53:41;11.55;;;4.13;;
69246;SDS011;56358;56.328;43.992;2023-12-28T05:55:42;9.02;;;4.50;;
69246;SDS011;56358;56.328;43.992;2023-12-28T05:57:43;12.98;;;4.75;;
69246;SDS011;56358;56.328;43.992;2023-12-28T05:59:44;10.77;;;4.47;;
69246;SDS011;56358;56.328;43.992;2023-12-28T06:01:45;10.55;;;4.78;;
69246;SDS011;56358;56.328;43.992;2023-12-28T06:03:47;7.65;;;3.97;;
69246;SDS011;56358;56.328;43.992;2023-12-28T06:05:50;7.95;;;4.10;;
69246;SDS011;56358;56.328;43.992;2023-12-28T06:07:51;14.00;;;4.82;;
69246;SDS011;56358;56.328;43.992;2023-12-28T06:09:51;13.25;;;4.50;;
69246;SDS011;56358;56.328;43.992;2023-12-28T06:11:52;9.57;;;4.30;;
69246;SDS011;56358;56.328;43.992;2023-12-28T06:13:52;9.20;;;3.33;;
69246;SDS011;56358;56.328;43.992;2023-12-28T06:15:53;8.50;;;3.65;;
69246;SDS011;56358;56.328;43.992;2023-12-28T06:17:54;11.05;;;3.88;;
69246;SDS011;56358;56.328;43.992;2023-12-28T06:19:55;9.88;;;3.95;;
69246;SDS011;56358;56.328;43.992;2023-12-28T06:21:55;8.00;;;2.83;;
69246;SDS011;56358;56.328;43.992;2023-12-28T06:23:58;9.20;;;3.22;;
69246;SDS011;56358;56.328;43.992;2023-12-28T06:26:03;5.95;;;3.08;;
69246;SDS011;56358;56.328;43.992;2023-12-28T06:28:05;5.43;;;2.22;;
69246;SDS011;56358;56.328;43.992;2023-12-28T06:30:06;7.93;;;3.67;;
69246;SDS011;56358;56.328;43.992;2023-12-28T06:32:08;8.25;;;2.92;;
69246;SDS011;56358;56.328;43.992;2023-12-28T06:34:08;5.10;;;2.40;;
69246;SDS011;56358;56.328;43.992;2023-12-28T06:36:09;7.10;;;2.97;;
69246;SDS011;56358;56.328;43.992;2023-12-28T06:38:11;6.80;;;2.83;;
69246;SDS011;56358;56.328;43.992;2023-12-28T06:40:11;7.93;;;2.63;;
69246;SDS011;56358;56.328;43.992;2023-12-28T06:42:12;10.85;;;3.35;;
69246;SDS011;56358;56.328;43.992;2023-12-28T06:44:13;8.02;;;2.72;;
69246;SDS011;56358;56.328;43.992;2023-12-28T06:46:15;7.13;;;2.40;;
69246;SDS011;56358;56.328;43.992;2023-12-28T06:48:15;7.82;;;3.17;;
69246;SDS011;56358;56.328;43.992;2023-12-28T06:50:16;5.10;;;2.60;;
69246;SDS011;56358;56.328;43.992;2023-12-28T06:52:17;5.38;;;2.60;;
69246;SDS011;56358;56.328;43.992;2023-12-28T06:54:18;5.97;;;2.70;;
69246;SDS011;56358;56.328;43.992;2023-12-28T06:56:18;8.63;;;3.42;;
69246;SDS011;56358;56.328;43.992;2023-12-28T06:58:19;6.20;;;2.90;;
69246;SDS011;56358;56.328;43.992;2023-12-28T07:00:20;11.50;;;3.50;;
69246;SDS011;56358;56.328;43.992;2023-12-28T07:02:21;8.75;;;3.65;;
69246;SDS011;56358;56.328;43.992;2023-12-28T07:04:21;8.65;;;3.00;;
69246;SDS011;56358;56.328;43.992;2023-12-28T07:06:25;7.72;;;3.20;;
69246;SDS011;56358;56.328;43.992;2023-12-28T07:08:26;6.88;;;2.90;;
69246;SDS011;56358;56.328;43.992;2023-12-28T07:10:27;8.20;;;2.67;;
69246;SDS011;56358;56.328;43.992;2023-12-28T07:12:28;8.10;;;3.22;;
69246;SDS011;56358;56.328;43.992;2023-12-28T07:14:28;9.23;;;3.72;;
69246;SDS011;56358;56.328;43.992;2023-12-28T07:16:29;6.78;;;2.90;;
69246;SDS011;56358;56.328;43.992;2023-12-28T07:18:30;8.20;;;3.28;;
69246;SDS011;56358;56.328;43.992;2023-12-28T07:20:30;6.63;;;2.85;;
69246;SDS011;56358;56.328;43.992;2023-12-28T07:22:31;8.52;;;2.92;;
69246;SDS011;56358;56.328;43.992;2023-12-28T07:24:32;8.68;;;3.00;;
69246;SDS011;56358;56.328;43.992;2023-12-28T07:26:33;7.25;;;3.50;;
69246;SDS011;56358;56.328;43.992;2023-12-28T07:28:34;9.55;;;3.22;;
69246;SDS011;56358;56.328;43.992;2023-12-28T07:30:34;4.97;;;3.03;;
69246;SDS011;56358;56.328;43.992;2023-12-28T07:32:36;11.02;;;3.92;;
69246;SDS011;56358;56.328;43.992;2023-12-28T07:34:37;7.93;;;3.40;;
69246;SDS011;56358;56.328;43.992;2023-12-28T07:36:37;7.28;;;3.00;;
69246;SDS011;56358;56.328;43.992;2023-12-28T07:38:41;7.60;;;2.90;;
69246;SDS011;56358;56.328;43.992;2023-12-28T07:40:41;8.43;;;3.20;;
69246;SDS011;56358;56.328;43.992;2023-12-28T07:42:42;8.20;;;3.15;;
69246;SDS011;56358;56.328;43.992;2023-12-28T07:44:43;10.75;;;3.75;;
69246;SDS011;56358;56.328;43.992;2023-12-28T07:46:44;7.35;;;2.92;;
69246;SDS011;56358;56.328;43.992;2023-12-28T07:48:45;10.00;;;3.58;;
69246;SDS011;56358;56.328;43.992;2023-12-28T07:50:46;4.97;;;2.47;;
69246;SDS011;56358;56.328;43.992;2023-12-28T07:52:47;6.63;;;3.00;;
69246;SDS011;56358;56.328;43.992;2023-12-28T07:54:48;6.53;;;3.08;;
69246;SDS011;56358;56.328;43.992;2023-12-28T07:56:49;8.07;;;3.15;;
69246;SDS011;56358;56.328;43.992;2023-12-28T07:58:50;6.75;;;2.58;;
69246;SDS011;56358;56.328;43.992;2023-12-28T08:00:51;4.75;;;2.10;;
69246;SDS011;56358;56.328;43.992;2023-12-28T08:02:52;6.38;;;3.03;;
69246;SDS011;56358;56.328;43.992;2023-12-28T08:04:53;6.38;;;2.60;;
69246;SDS011;56358;56.328;43.992;2023-12-28T08:06:53;4.07;;;2.47;;
69246;SDS011;56358;56.328;43.992;2023-12-28T08:08:54;5.10;;;2.50;;
69246;SDS011;56358;56.328;43.992;2023-12-28T08:10:55;7.53;;;3.38;;
69246;SDS011;56358;56.328;43.992;2023-12-28T08:12:56;7.40;;;3.67;;
69246;SDS011;56358;56.328;43.992;2023-12-28T08:14:58;6.93;;;3.58;;
69246;SDS011;56358;56.328;43.992;2023-12-28T08:17:00;6.70;;;2.92;;
69246;SDS011;56358;56.328;43.992;2023-12-28T08:19:01;4.82;;;1.77;;
69246;SDS011;56358;56.328;43.992;2023-12-28T08:21:02;4.68;;;2.30;;
69246;SDS011;56358;56.328;43.992;2023-12-28T08:23:02;4.07;;;2.13;;
69246;SDS011;56358;56.328;43.992;2023-12-28T08:25:03;4.57;;;2.35;;
69246;SDS011;56358;56.328;43.992;2023-12-28T08:27:04;3.85;;;1.95;;
69246;SDS011;56358;56.328;43.992;2023-12-28T08:29:05;5.20;;;2.13;;
69246;SDS011;56358;56.328;43.992;2023-12-28T08:31:06;3.25;;;1.63;;
69246;SDS011;56358;56.328;43.992;2023-12-28T08:33:09;5.57;;;2.70;;
69246;SDS011;56358;56.328;43.992;2023-12-28T08:35:09;4.70;;;2.25;;
69246;SDS011;56358;56.328;43.992;2023-12-28T08:37:10;5.95;;;2.53;;
69246;SDS011;56358;56.328;43.992;2023-12-28T08:39:11;6.68;;;2.60;;
69246;SDS011;56358;56.328;43.992;2023-12-28T08:41:18;4.60;;;2.25;;
69246;SDS011;56358;56.328;43.992;2023-12-28T08:43:20;4.43;;;2.30;;
69246;SDS011;56358;56.328;43.992;2023-12-28T08:45:20;5.30;;;2.08;;
69246;SDS011;56358;56.328;43.992;2023-12-28T08:47:21;5.30;;;2.42;;
69246;SDS011;56358;56.328;43.992;2023-12-28T08:49:22;5.05;;;2.40;;
69246;SDS011;56358;56.328;43.992;2023-12-28T08:51:23;6.65;;;3.20;;
69246;SDS011;56358;56.328;43.992;2023-12-28T08:53:24;6.65;;;2.20;;
69246;SDS011;56358;56.328;43.992;2023-12-28T08:55:25;4.97;;;2.28;;
69246;SDS011;56358;56.328;43.992;2023-12-28T08:57:26;4.38;;;1.85;;
69246;SDS011;56358;56.328;43.992;2023-12-28T08:59:26;8.50;;;3.45;;
69246;SDS011;56358;56.328;43.992;2023-12-28T09:01:27;4.38;;;2.70;;
69246;SDS011;56358;56.328;43.992;2023-12-28T09:03:31;7.07;;;3.22;;
69246;SDS011;56358;56.328;43.992;2023-12-28T09:05:31;8.10;;;2.63;;
69246;SDS011;56358;56.328;43.992;2023-12-28T09:07:34;6.40;;;3.08;;
69246;SDS011;56358;56.328;43.992;2023-12-28T09:09:36;4.28;;;2.42;;
69246;SDS011;56358;56.328;43.992;2023-12-28T09:11:37;6.93;;;3.22;;
69246;SDS011;56358;56.328;43.992;2023-12-28T09:13:38;5.65;;;2.75;;
69246;SDS011;56358;56.328;43.992;2023-12-28T09:15:39;7.50;;;2.65;;
69246;SDS011;56358;56.328;43.992;2023-12-28T09:17:40;7.63;;;3.63;;
69246;SDS011;56358;56.328;43.992;2023-12-28T09:19:41;4.88;;;2.80;;
69246;SDS011;56358;56.328;43.992;2023-12-28T09:21:42;9.98;;;4.53;;
69246;SDS011;56358;56.328;43.992;2023-12-28T09:23:42;5.78;;;2.75;;
69246;SDS011;56358;56.328;43.992;2023-12-28T09:25:43;6.05;;;2.42;;
69246;SDS011;56358;56.328;43.992;2023-12-28T09:27:44;5.50;;;2.50;;
69246;SDS011;56358;56.328;43.992;2023-12-28T09:29:45;6.38;;;2.92;;
69246;SDS011;56358;56.328;43.992;2023-12-28T09:31:46;7.70;;;3.15;;
69246;SDS011;56358;56.328;43.992;2023-12-28T09:33:46;3.38;;;1.92;;
69246;SDS011;56358;56.328;43.992;2023-12-28T09:35:47;7.00;;;3.15;;
69246;SDS011;56358;56.328;43.992;2023-12-28T09:37:48;6.65;;;2.28;;
69246;SDS011;56358;56.328;43.992;2023-12-28T09:39:49;5.85;;;2.85;;
69246;SDS011;56358;56.328;43.992;2023-12-28T09:41:55;4.60;;;2.38;;
69246;SDS011;56358;56.328;43.992;2023-12-28T09:46:11;2.72;;;1.40;;
69246;SDS011;56358;56.328;43.992;2023-12-28T09:48:16;5.20;;;2.10;;
69246;SDS011;56358;56.328;43.992;2023-12-28T09:50:18;3.13;;;1.90;;
69246;SDS011;56358;56.328;43.992;2023-12-28T09:52:19;5.40;;;2.03;;
69246;SDS011;56358;56.328;43.992;2023-12-28T09:54:20;2.92;;;1.40;;
69246;SDS011;56358;56.328;43.992;2023-12-28T09:56:21;4.82;;;2.50;;
69246;SDS011;56358;56.328;43.992;2023-12-28T09:58:22;4.03;;;2.35;;
69246;SDS011;56358;56.328;43.992;2023-12-28T10:00:23;5.43;;;2.00;;
69246;SDS011;56358;56.328;43.992;2023-12-28T10:02:24;3.42;;;1.90;;
69246;SDS011;56358;56.328;43.992;2023-12-28T10:04:25;4.53;;;1.90;;
69246;SDS011;56358;56.328;43.992;2023-12-28T10:06:26;5.65;;;2.72;;
69246;SDS011;56358;56.328;43.992;2023-12-28T10:08:27;4.47;;;2.08;;
69246;SDS011;56358;56.328;43.992;2023-12-28T10:10:28;7.43;;;2.97;;
69246;SDS011;56358;56.328;43.992;2023-12-28T10:12:31;4.60;;;1.83;;
69246;SDS011;56358;56.328;43.992;2023-12-28T10:14:33;5.50;;;3.00;;
69246;SDS011;56358;56.328;43.992;2023-12-28T10:16:34;3.45;;;2.05;;
69246;SDS011;56358;56.328;43.992;2023-12-28T10:18:35;5.10;;;2.42;;
69246;SDS011;56358;56.328;43.992;2023-12-28T10:20:35;5.78;;;2.00;;
69246;SDS011;56358;56.328;43.992;2023-12-28T10:22:37;8.02;;;2.50;;
69246;SDS011;56358;56.328;43.992;2023-12-28T10:24:41;3.85;;;1.98;;
69246;SDS011;56358;56.328;43.992;2023-12-28T10:26:43;3.53;;;1.75;;
69246;SDS011;56358;56.328;43.992;2023-12-28T10:28:44;6.43;;;2.45;;
69246;SDS011;56358;56.328;43.992;2023-12-28T10:30:45;6.65;;;2.38;;
69246;SDS011;56358;56.328;43.992;2023-12-28T10:32:46;4.32;;;2.05;;
69246;SDS011;56358;56.328;43.992;2023-12-28T10:34:47;4.60;;;2.42;;
69246;SDS011;56358;56.328;43.992;2023-12-28T10:36:48;5.38;;;3.10;;
69246;SDS011;56358;56.328;43.992;2023-12-28T10:38:51;4.32;;;2.00;;
69246;SDS011;56358;56.328;43.992;2023-12-28T10:40:54;5.78;;;2.38;;
69246;SDS011;56358;56.328;43.992;2023-12-28T10:42:57;4.63;;;1.98;;
69246;SDS011;56358;56.328;43.992;2023-12-28T10:45:03;4.13;;;2.10;;
69246;SDS011;56358;56.328;43.992;2023-12-28T10:47:07;3.92;;;2.15;;
69246;SDS011;56358;56.328;43.992;2023-12-28T10:49:17;5.30;;;1.90;;
69246;SDS011;56358;56.328;43.992;2023-12-28T10:51:22;4.68;;;1.70;;
69246;SDS011;56358;56.328;43.992;2023-12-28T10:55:43;4.63;;;2.25;;
69246;SDS011;56358;56.328;43.992;2023-12-28T10:58:10;4.93;;;2.15;;
69246;SDS011;56358;56.328;43.992;2023-12-28T11:00:20;5.57;;;2.03;;
69246;SDS011;56358;56.328;43.992;2023-12-28T11:02:28;4.43;;;1.88;;
69246;SDS011;56358;56.328;43.992;2023-12-28T11:04:36;3.42;;;1.67;;
69246;SDS011;56358;56.328;43.992;2023-12-28T11:06:42;5.63;;;1.73;;
69246;SDS011;56358;56.328;43.992;2023-12-28T11:08:43;6.10;;;2.03;;
69246;SDS011;56358;56.328;43.992;2023-12-28T11:10:50;5.15;;;1.80;;
69246;SDS011;56358;56.328;43.992;2023-12-28T11:12:52;3.58;;;1.55;;
69246;SDS011;56358;56.328;43.992;2023-12-28T11:14:53;5.35;;;2.25;;
69246;SDS011;56358;56.328;43.992;2023-12-28T11:16:56;5.57;;;1.80;;
69246;SDS011;56358;56.328;43.992;2023-12-28T11:19:02;4.32;;;1.80;;
69246;SDS011;56358;56.328;43.992;2023-12-28T11:21:05;4.38;;;1.95;;
69246;SDS011;56358;56.328;43.992;2023-12-28T11:23:06;4.38;;;2.28;;
69246;SDS011;56358;56.328;43.992;2023-12-28T11:25:14;2.95;;;1.33;;
69246;SDS011;56358;56.328;43.992;2023-12-28T11:27:16;5.72;;;3.10;;
69246;SDS011;56358;56.328;43.992;2023-12-28T11:29:18;3.70;;;1.92;;
69246;SDS011;56358;56.328;43.992;2023-12-28T11:31:19;6.45;;;1.83;;
69246;SDS011;56358;56.328;43.992;2023-12-28T11:33:20;6.28;;;2.85;;
69246;SDS011;56358;56.328;43.992;2023-12-28T11:35:21;6.13;;;2.08;;
69246;SDS011;56358;56.328;43.992;2023-12-28T11:37:22;12.23;;;3.08;;
69246;SDS011;56358;56.328;43.992;2023-12-28T11:39:29;6.38;;;2.53;;
69246;SDS011;56358;56.328;43.992;2023-12-28T11:41:35;5.75;;;2.15;;
69246;SDS011;56358;56.328;43.992;2023-12-28T11:43:36;6.30;;;2.50;;
69246;SDS011;56358;56.328;43.992;2023-12-28T11:45:37;6.03;;;2.55;;
69246;SDS011;56358;56.328;43.992;2023-12-28T11:47:38;7.40;;;2.53;;
69246;SDS011;56358;56.328;43.992;2023-12-28T11:49:39;3.67;;;2.10;;
69246;SDS011;56358;56.328;43.992;2023-12-28T11:51:53;6.07;;;2.65;;
69246;SDS011;56358;56.328;43.992;2023-12-28T11:53:55;7.35;;;3.30;;
69246;SDS011;56358;56.328;43.992;2023-12-28T11:56:00;8.57;;;3.22;;
69246;SDS011;56358;56.328;43.992;2023-12-28T11:58:02;7.35;;;2.88;;
69246;SDS011;56358;56.328;43.992;2023-12-28T12:00:03;9.30;;;2.97;;
69246;SDS011;56358;56.328;43.992;2023-12-28T12:02:05;7.20;;;2.53;;
69246;SDS011;56358;56.328;43.992;2023-12-28T12:04:07;5.40;;;2.47;;